Orange, VA

1:21 PM EST on November 21, 2017 (GMT -0500)
Orange County

Weather History for KOMH - January, 2014

Change the Weather History Date:

Saturday, January 25, 2014

  Actual Average Record
Temperature  
Mean Temperature 30 °F -  
Max Temperature 37 °F 45 °F 75 °F (1967)
Min Temperature 24 °F 25 °F -1 °F (1961)
Degree Days  
Heating Degree Days 34    
Moisture  
Dew Point 13 °F    
Average Humidity 49    
Maximum Humidity 93    
Minimum Humidity 40    
Precipitation  
Precipitation 0.00 in - - ()
Sea Level Pressure  
Sea Level Pressure 29.72 in    
Wind  
Wind Speed 13 mph (South)    
Max Wind Speed 18 mph    
Max Gust Speed 30 mph    
Visibility 10 miles    
Events Snow    
Averages and records for this station are not official NWS values.
T = Trace of Precipitation, MM = Missing Value Source: NWS Daily Summary

Daily Weather History Graph

Daily Weather History Graph

Search for Another Location

Airport or City:

Trip Planner

Search our weather history database for the weather conditions in past years. The results will help you decide how hot, cold, wet, or windy it might be!

Date:

Astronomy

Jan. 25, 2014 Rise Set
Actual Time 7:22 AM EST 5:26 PM EST
Civil Twilight 6:54 AM EST 5:55 PM EST
Nautical Twilight 6:22 AM EST 6:27 PM EST
Astronomical Twilight 5:50 AM EST 6:58 PM EST
Moon 1:52 AM EST (1/25) 12:25 PM EST (1/25)
Length of Visible Light 11h 01m
Length of Day
10h 04m
Waning Crescent, 34% of the Moon is Illuminated
Jan 25
Waning Crescent
Jan 30
New
Feb 6
First Quarter
Feb 14
Full
Feb 22
Last Quarter

Hourly Weather History & Observations

Time (EST) Temp. Windchill Dew Point Humidity Pressure Visibility Wind Dir Wind Speed Gust Speed Precip Events Conditions
12:15 AM 24.8 °F 13.4 °F 3.2 °F 40% 30.09 in 10.0 mi SSE 12.7 mph 18.4 mph N/A   Clear
12:35 AM 24.8 °F 13.4 °F 5.0 °F 43% 30.07 in 10.0 mi South 12.7 mph - N/A   Clear
12:55 AM 24.8 °F 12.9 °F 5.0 °F 43% 30.06 in 10.0 mi South 13.8 mph 21.9 mph N/A   Clear
1:15 AM 24.8 °F 14.0 °F 5.0 °F 43% 30.05 in 10.0 mi South 11.5 mph 17.3 mph N/A   Clear
1:35 AM 24.8 °F 13.4 °F 5.0 °F 43% 30.03 in 10.0 mi SSE 12.7 mph 20.7 mph N/A   Clear
1:55 AM 24.8 °F 13.4 °F 5.0 °F 43% 30.03 in 10.0 mi South 12.7 mph 24.2 mph N/A   Clear
2:15 AM 24.8 °F 12.9 °F 3.2 °F 40% 30.01 in 10.0 mi South 13.8 mph 21.9 mph N/A   Clear
2:35 AM 24.8 °F 11.9 °F 3.2 °F 40% 30.01 in 10.0 mi South 16.1 mph 24.2 mph N/A   Clear
2:55 AM 24.8 °F 11.9 °F 3.2 °F 40% 29.98 in 10.0 mi South 16.1 mph 25.3 mph N/A   Clear
3:15 AM 24.8 °F 13.4 °F 3.2 °F 40% 29.96 in 10.0 mi South 12.7 mph 24.2 mph N/A   Clear
3:35 AM 24.8 °F 13.4 °F 3.2 °F 40% 29.95 in 10.0 mi South 12.7 mph 21.9 mph N/A   Clear
3:55 AM 24.8 °F 14.0 °F 5.0 °F 43% 29.94 in 10.0 mi South 11.5 mph 21.9 mph N/A   Clear
4:15 AM 24.8 °F 12.4 °F 5.0 °F 43% 29.92 in 10.0 mi South 15.0 mph 21.9 mph N/A   Clear
4:35 AM 24.8 °F 11.9 °F 5.0 °F 43% 29.91 in 10.0 mi South 16.1 mph 21.9 mph N/A   Clear
4:55 AM 24.8 °F 11.9 °F 5.0 °F 43% 29.89 in 10.0 mi South 16.1 mph 24.2 mph N/A   Clear
5:15 AM 24.8 °F 11.1 °F 5.0 °F 43% 29.88 in 10.0 mi South 18.4 mph 23.0 mph N/A   Clear
5:35 AM 24.8 °F 14.0 °F 5.0 °F 43% 29.87 in 10.0 mi South 11.5 mph 18.4 mph N/A   Clear
5:55 AM 24.8 °F 13.4 °F 5.0 °F 43% 29.86 in 10.0 mi South 12.7 mph 19.6 mph N/A   Clear
6:15 AM 24.8 °F 12.9 °F 5.0 °F 43% 29.85 in 10.0 mi South 13.8 mph 20.7 mph N/A   Clear
6:35 AM 26.6 °F 16.8 °F 5.0 °F 40% 29.84 in 10.0 mi SSE 10.4 mph 20.7 mph N/A   Clear
6:55 AM 26.6 °F 17.5 °F 5.0 °F 40% 29.83 in 10.0 mi South 9.2 mph 17.3 mph N/A   Clear
7:15 AM 26.6 °F 17.5 °F 6.8 °F 43% 29.83 in 10.0 mi South 9.2 mph 19.6 mph N/A   Scattered Clouds
7:35 AM 26.6 °F 14.3 °F 5.0 °F 40% 29.80 in 10.0 mi SSE 16.1 mph 24.2 mph N/A   Scattered Clouds
7:55 AM 26.6 °F 14.7 °F 6.8 °F 43% 29.77 in 10.0 mi SSE 15.0 mph 24.2 mph N/A   Overcast
8:15 AM 26.6 °F 13.8 °F 6.8 °F 43% 29.76 in 10.0 mi SSE 17.3 mph 24.2 mph N/A   Overcast
8:35 AM 26.6 °F 15.7 °F 8.6 °F 47% 29.76 in 10.0 mi South 12.7 mph 21.9 mph N/A   Overcast
8:55 AM 28.4 °F 16.6 °F 8.6 °F 43% 29.74 in 10.0 mi South 16.1 mph 26.5 mph N/A   Overcast
9:15 AM 28.4 °F 17.0 °F 8.6 °F 43% 29.73 in 10.0 mi SSE 15.0 mph 20.7 mph N/A   Overcast
9:35 AM 28.4 °F 16.6 °F 8.6 °F 43% 29.73 in 10.0 mi SSE 16.1 mph 21.9 mph N/A   Overcast
9:55 AM 28.4 °F 16.6 °F 8.6 °F 43% 29.72 in 10.0 mi SSE 16.1 mph 20.7 mph N/A   Overcast
10:15 AM 28.4 °F 17.0 °F 8.6 °F 43% 29.71 in 10.0 mi South 15.0 mph 23.0 mph N/A   Overcast
10:35 AM 28.4 °F 17.0 °F 10.4 °F 47% 29.70 in 10.0 mi South 15.0 mph 20.7 mph N/A   Mostly Cloudy
10:55 AM 30.2 °F 18.9 °F 10.4 °F 44% 29.68 in 10.0 mi SSE 16.1 mph 20.7 mph N/A   Scattered Clouds
11:15 AM 30.2 °F 18.9 °F 10.4 °F 44% 29.66 in 10.0 mi SSE 16.1 mph 23.0 mph N/A   Clear
11:35 AM 30.2 °F 20.2 °F 10.4 °F 44% 29.65 in 10.0 mi South 12.7 mph 21.9 mph N/A   Clear
11:55 AM 32.0 °F 23.0 °F 10.4 °F 41% 29.64 in 10.0 mi South 11.5 mph 27.6 mph N/A   Mostly Cloudy
12:15 PM 32.0 °F 21.6 °F 10.4 °F 41% 29.61 in 10.0 mi South 15.0 mph 21.9 mph N/A   Overcast
12:35 PM 32.0 °F 20.5 °F 10.4 °F 41% 29.59 in 10.0 mi South 18.4 mph 27.6 mph N/A   Scattered Clouds
12:55 PM 32.0 °F 21.2 °F 12.2 °F 44% 29.57 in 10.0 mi South 16.1 mph 24.2 mph N/A   Scattered Clouds
1:15 PM 32.0 °F 22.5 °F 12.2 °F 44% 29.55 in 10.0 mi SSE 12.7 mph 25.3 mph N/A   Clear
1:35 PM 33.8 °F 24.8 °F 12.2 °F 41% 29.54 in 10.0 mi South 12.7 mph 18.4 mph N/A   Clear
1:55 PM 35.6 °F 27.5 °F 14.0 °F 41% 29.53 in 10.0 mi South 11.5 mph 23.0 mph N/A   Mostly Cloudy
2:15 PM 35.6 °F 28.0 °F 15.8 °F 44% 29.51 in 10.0 mi South 10.4 mph 18.4 mph N/A   Overcast
2:35 PM 35.6 °F 26.6 °F 15.8 °F 44% 29.50 in 10.0 mi SSE 13.8 mph 20.7 mph N/A   Overcast
2:55 PM 37.4 °F 30.3 °F 17.6 °F 45% 29.50 in 10.0 mi South 10.4 mph 19.6 mph N/A   Overcast
3:15 PM 37.4 °F 28.2 °F 17.6 °F 45% 29.50 in 10.0 mi South 16.1 mph 25.3 mph N/A   Overcast
3:35 PM 35.6 °F 28.0 °F 19.4 °F 52% 29.51 in 10.0 mi South 10.4 mph 25.3 mph N/A   Overcast
3:55 PM 35.6 °F 26.2 °F 19.4 °F 52% 29.51 in 10.0 mi South 15.0 mph 25.3 mph N/A   Overcast
4:15 PM 35.6 °F 26.2 °F 19.4 °F 52% 29.51 in 10.0 mi South 15.0 mph 21.9 mph N/A   Overcast
4:35 PM 35.6 °F 25.2 °F 21.2 °F 56% 29.51 in 10.0 mi South 18.4 mph 23.0 mph N/A   Overcast
4:55 PM 37.4 °F 28.5 °F 21.2 °F 52% 29.52 in 10.0 mi South 15.0 mph 21.9 mph N/A   Overcast
5:15 PM 35.6 °F 27.1 °F 23.0 °F 60% 29.52 in 10.0 mi South 12.7 mph 20.7 mph N/A   Overcast
5:35 PM 35.6 °F 26.6 °F 23.0 °F 60% 29.52 in 10.0 mi South 13.8 mph 19.6 mph N/A   Mostly Cloudy
5:55 PM 35.6 °F 27.5 °F 23.0 °F 60% 29.54 in 10.0 mi South 11.5 mph 20.7 mph N/A   Scattered Clouds
6:15 PM 35.6 °F 27.5 °F 24.8 °F 65% 29.55 in 10.0 mi South 11.5 mph 17.3 mph N/A   Scattered Clouds
6:35 PM 35.6 °F 29.9 °F 24.8 °F 65% 29.55 in 10.0 mi South 6.9 mph - N/A   Scattered Clouds
6:55 PM 33.8 °F 27.7 °F 24.8 °F 70% 29.56 in 10.0 mi South 6.9 mph - N/A   Clear
7:15 PM 33.8 °F 28.6 °F 23.0 °F 65% 29.57 in 10.0 mi SSE 5.8 mph - N/A   Clear
7:35 PM 33.8 °F 29.6 °F 23.0 °F 65% 29.57 in 10.0 mi South 4.6 mph - N/A   Clear
7:55 PM 33.8 °F 27.0 °F 23.0 °F 65% 29.57 in 10.0 mi South 8.1 mph - N/A   Clear
8:15 PM 33.8 °F 28.6 °F 21.2 °F 60% 29.58 in 10.0 mi SE 5.8 mph - N/A   Scattered Clouds
8:35 PM 32.0 °F 26.4 °F 23.0 °F 69% 29.57 in 10.0 mi SE 5.8 mph - N/A   Scattered Clouds
8:55 PM 32.0 °F 27.5 °F 23.0 °F 69% 29.58 in 10.0 mi SE 4.6 mph - N/A   Clear
9:15 PM 30.2 °F 25.4 °F 23.0 °F 75% 29.58 in 10.0 mi SSE 4.6 mph - N/A   Clear
10:15 PM 33.8 °F 23.5 °F 30.2 °F 87% 29.65 in 0.5 mi West 16.1 mph 29.9 mph N/A Snow Light Snow
10:35 PM 32.0 °F 22.5 °F 30.2 °F 93% 29.66 in 10.0 mi West 12.7 mph 18.4 mph N/A   Mostly Cloudy
10:55 PM 33.8 °F 23.5 °F 23.0 °F 65% 29.67 in 10.0 mi WSW 16.1 mph 21.9 mph N/A   Scattered Clouds
11:15 PM 33.8 °F 23.2 °F 17.6 °F 52% 29.68 in 10.0 mi West 17.3 mph 27.6 mph N/A   Clear
11:35 PM 33.8 °F 23.2 °F 14.0 °F 44% 29.69 in 10.0 mi WSW 17.3 mph 27.6 mph N/A   Clear
11:55 PM 32.0 °F 20.5 °F 12.2 °F 44% 29.70 in 10.0 mi WSW 18.4 mph 25.3 mph N/A   Clear